Latest Weather Observations for Mount Gambier

IDS60801

Issued at 4:05 pm CST Friday 25 July 2014 (issued every 30 minutes, with the page automatically refreshed every 10 minutes)

About weather observations | Map of weather stations | Latest weather observations for SA | Other Formats
Station Details ID: 026021 Name: MOUNT GAMBIER AERO Lat: -37.75 Lon: 140.77 Height: 63.0 m
Data from the previous 72 hours. | See also: Recent months at Mount Gambier
Date/Time
CST
Temp
°C
App
Temp
°C
Dew
Point
Rel
Hum
%
Delta-T
°C
Wind Press
QNH
hPa
Press
MSL
hPa
Rain
since 9 am
mm
Dir
 
Spd
km/h
Gust
km/h
Spd
kts
Gust
kts
25/04:00pm 13.4 10.5 11.1 86 1.2 WSW 17 20 9 11 1016.4 - 2.6
25/03:30pm 13.2 9.6 10.5 84 1.4 WNW 20 28 11 15 1016.1 - 2.4
25/03:00pm 13.7 9.8 10.7 82 1.6 W 22 30 12 16 1015.8 1015.9 2.4
25/02:30pm 12.5 8.4 10.2 86 1.2 W 22 28 12 15 1015.4 - 2.4
25/02:02pm 12.8 10.0 11.3 91 0.8 W 17 22 9 12 1015.2 - 2.2
25/02:00pm 12.7 9.5 11.4 92 0.7 W 19 24 10 13 1015.1 - 2.2
25/01:46pm 12.4 6.9 10.7 89 0.9 W 30 39 16 21 1015.0 - 2.2
25/01:30pm 14.3 9.3 9.7 74 2.4 W 26 35 14 19 1014.8 - 0.0
25/01:00pm 13.6 8.3 9.7 77 2.0 W 28 37 15 20 1014.9 - 0.0
25/12:30pm 14.2 9.4 10.4 78 2.0 WNW 26 35 14 19 1014.8 - 0.0
25/12:00pm 13.7 8.8 9.8 77 2.0 W 26 32 14 17 1014.9 1015.0 0.0
25/11:30am 13.4 8.8 9.5 77 2.0 W 24 32 13 17 1014.9 - 0.0
25/11:00am 14.2 9.4 10.2 77 2.1 W 26 35 14 19 1015.0 - 0.0
25/10:30am 13.9 11.1 11.5 85 1.3 W 17 22 9 12 1015.0 - 0.0
25/10:00am 12.9 11.1 12.0 94 0.5 WNW 13 15 7 8 1014.6 - 0.0
25/09:30am 11.9 9.8 11.1 95 0.4 NW 13 15 7 8 1014.1 - 0.0
25/09:00am 11.4 8.9 11.2 99 0.1 NW 15 17 8 9 1013.9 1013.9 9.4
25/08:30am 10.7 8.0 10.3 97 0.2 NNW 15 20 8 11 1013.3 - 9.4
25/08:00am 10.6 7.5 10.2 97 0.2 NNW 17 24 9 13 1012.9 - 9.4
25/07:48am 10.5 7.0 10.3 99 0.1 NNW 19 24 10 13 1012.7 - 9.4
25/07:30am 10.4 7.3 10.2 99 0.1 NNW 17 20 9 11 1012.4 - 9.4
25/07:00am 10.3 7.5 10.1 99 0.1 NNW 15 20 8 11 1012.0 - 9.4
25/06:30am 10.7 8.0 10.3 97 0.2 NNW 15 20 8 11 1011.4 - 9.4
25/06:00am 10.8 7.7 10.4 97 0.2 NNW 17 22 9 12 1011.0 1011.1 9.4
25/05:30am 10.8 7.7 10.4 97 0.2 NNW 17 24 9 13 1010.6 - 9.4
25/05:00am 10.8 8.5 10.4 97 0.2 NNW 13 19 7 10 1010.2 - 9.4
25/04:30am 10.8 8.4 10.2 96 0.3 NNW 13 20 7 11 1009.8 - 9.4
25/04:00am 10.6 8.2 10.2 97 0.2 N 13 17 7 9 1009.6 - 9.4
25/03:30am 11.0 8.7 10.4 96 0.3 N 13 19 7 10 1009.5 - 9.4
25/03:00am 11.2 8.9 10.4 95 0.4 N 13 17 7 9 1009.4 1009.5 9.4
25/02:30am 11.1 8.8 10.5 96 0.3 N 13 17 7 9 1009.2 - 9.4
25/02:00am 11.1 9.2 10.5 96 0.3 N 11 17 6 9 1009.1 - 9.4
25/01:30am 11.1 8.8 10.5 96 0.3 N 13 19 7 10 1008.9 - 9.4
25/01:00am 11.1 8.4 10.5 96 0.3 N 15 22 8 12 1008.7 - 9.4
25/12:30am 11.1 8.0 10.3 95 0.4 N 17 24 9 13 1008.6 - 9.4
25/12:00am 11.0 7.9 10.4 96 0.3 N 17 26 9 14 1008.6 1008.7 9.4
 
Date/Time
CST
Temp
°C
App
Temp
°C
Dew
Point
Rel
Hum
%
Delta-T
°C
Wind Press
QNH
hPa
Press
MSL
hPa
Rain
since 9 am
mm
Dir
 
Spd
km/h
Gust
km/h
Spd
kts
Gust
kts
24/11:30pm 11.0 7.9 10.4 96 0.3 N 17 24 9 13 1008.7 - 9.4
24/11:21pm 11.1 8.0 10.3 95 0.4 N 17 20 9 11 1008.7 - 9.4
24/11:12pm 11.0 7.6 10.4 96 0.3 N 19 28 10 15 1008.6 - 9.4
24/11:00pm 11.1 7.6 10.3 95 0.4 N 19 26 10 14 1008.6 - 9.4
24/10:30pm 11.2 7.6 10.4 95 0.4 N 20 28 11 15 1008.5 - 9.4
24/10:17pm 11.1 7.7 10.5 96 0.3 N 19 26 10 14 1008.5 - 9.4
24/10:00pm 11.1 7.7 10.5 96 0.3 NNE 19 24 10 13 1008.5 - 9.4
24/09:30pm 11.0 7.9 10.4 96 0.3 NNE 17 24 9 13 1008.5 - 9.2
24/09:20pm 11.0 7.9 10.4 96 0.3 NNE 17 20 9 11 1008.5 - 9.2
24/09:11pm 11.0 7.9 10.4 96 0.3 NNE 17 22 9 12 1008.5 - 9.2
24/09:09pm 11.0 7.9 10.4 96 0.3 NNE 17 22 9 12 1008.5 - 9.2
24/09:01pm 11.0 7.6 10.4 96 0.3 NNE 19 26 10 14 1008.5 - 8.6
24/09:00pm 11.0 7.6 10.4 96 0.3 NNE 19 26 10 14 1008.5 1008.6 8.6
24/08:38pm 10.9 7.4 10.3 96 0.3 NNE 19 26 10 14 1008.6 - 8.6
24/08:30pm 10.9 7.4 10.3 96 0.3 NNE 19 22 10 12 1008.5 - 8.6
24/08:21pm 10.8 7.7 10.2 96 0.3 NE 17 22 9 12 1008.5 - 8.4
24/08:06pm 10.8 7.1 10.2 96 0.3 NE 20 26 11 14 1008.5 - 7.8
24/08:04pm 10.8 6.7 10.2 96 0.3 NE 22 26 12 14 1008.4 - 7.8
24/08:00pm 10.7 7.0 10.1 96 0.3 NE 20 26 11 14 1008.4 - 7.8
24/07:41pm 10.6 7.1 10.2 97 0.2 NE 19 28 10 15 1008.5 - 7.6
24/07:30pm 10.6 7.5 10.2 97 0.2 ENE 17 24 9 13 1008.3 - 7.6
24/07:11pm 10.5 7.3 10.1 97 0.2 ENE 17 19 9 10 1008.2 - 6.6
24/07:00pm 10.5 7.7 10.1 97 0.2 ENE 15 19 8 10 1008.3 - 3.2
24/06:48pm 10.5 7.7 10.1 97 0.2 NE 15 19 8 10 1008.3 - 1.4
24/06:30pm 10.4 7.2 9.8 96 0.3 ENE 17 19 9 10 1008.1 - 1.2
24/06:12pm 10.4 7.5 9.8 96 0.3 NE 15 17 8 9 1008.1 - 1.2
24/06:05pm 10.4 7.5 9.8 96 0.3 ENE 15 17 8 9 1008.0 - 1.2
24/06:00pm 10.5 7.7 10.1 97 0.2 ENE 15 19 8 10 1008.0 1008.1 1.2
24/05:57pm 10.5 7.3 10.1 97 0.2 ENE 17 19 9 10 1008.0 - 1.2
24/05:38pm 10.6 7.0 10.0 96 0.3 NE 19 24 10 13 1007.8 - 1.0
24/05:30pm 10.7 7.1 9.9 95 0.4 NE 19 24 10 13 1007.8 - 1.0
24/05:00pm 10.8 6.9 9.6 92 0.6 NE 20 24 11 13 1007.6 - 0.8
24/04:30pm 11.2 7.0 9.8 91 0.7 NE 22 30 12 16 1007.5 - 0.8
24/04:27pm 11.2 7.0 9.6 90 0.8 NE 22 30 12 16 1007.5 - 0.8
24/04:00pm 11.0 7.2 9.8 92 0.6 ENE 20 28 11 15 1007.3 - 0.8
24/03:58pm 11.0 7.2 9.8 92 0.6 ENE 20 28 11 15 1007.3 - 0.8
24/03:30pm 10.9 7.3 9.9 93 0.5 ENE 19 26 10 14 1007.3 - 0.8
24/03:12pm 11.0 6.8 9.6 91 0.7 NE 22 30 12 16 1007.3 - 0.8
24/03:00pm 11.2 7.4 9.2 87 1.0 NE 19 24 10 13 1007.2 1007.3 0.8
24/02:30pm 11.7 7.9 9.1 84 1.3 NE 19 22 10 12 1007.1 - 0.8
24/02:00pm 11.5 6.3 8.7 83 1.4 NE 26 33 14 18 1007.1 - 0.8
24/01:30pm 11.8 7.4 8.8 82 1.5 NE 22 32 12 17 1007.3 - 0.8
24/01:00pm 11.6 7.2 9.0 84 1.3 ENE 22 28 12 15 1007.6 - 0.8
24/12:30pm 11.3 7.3 9.1 86 1.1 ENE 20 28 11 15 1008.2 - 0.2
24/12:00pm 11.1 6.6 8.5 84 1.3 ENE 22 32 12 17 1008.7 1008.8 0.0
24/11:30am 11.1 7.0 8.7 85 1.2 ENE 20 26 11 14 1009.2 - 0.0
24/11:00am 11.0 6.1 8.6 85 1.2 ENE 24 32 13 17 1009.7 - 0.0
24/10:30am 10.5 4.9 8.7 89 0.9 E 28 35 15 19 1009.8 - 0.0
24/10:00am 10.0 5.1 8.4 90 0.8 E 24 30 13 16 1010.0 - 0.0
24/09:30am 9.7 4.7 8.0 89 0.8 E 24 30 13 16 1010.2 - 0.0
24/09:00am 9.4 4.4 7.9 90 0.7 E 24 33 13 18 1010.4 1010.5 2.0
24/08:30am 9.0 3.9 7.7 91 0.6 ENE 24 32 13 17 1010.4 - 2.4
24/08:00am 8.7 4.4 7.7 93 0.5 E 20 30 11 16 1010.5 - 2.4
24/07:30am 8.4 4.3 7.8 96 0.3 E 19 26 10 14 1010.6 - 2.4
24/07:00am 8.3 3.9 7.5 95 0.4 ENE 20 26 11 14 1010.8 - 2.4
24/06:30am 8.1 3.9 7.5 96 0.3 E 19 26 10 14 1010.8 - 2.2
24/06:00am 8.1 3.7 7.5 96 0.3 E 20 26 11 14 1010.7 1010.8 2.2
24/05:30am 8.2 3.8 7.4 95 0.4 ENE 20 26 11 14 1010.8 - 2.0
24/05:00am 8.1 3.7 7.2 94 0.4 ENE 20 26 11 14 1010.9 - 2.0
24/04:30am 8.1 3.8 7.2 94 0.4 ENE 19 26 10 14 1011.1 - 1.8
24/04:00am 8.0 3.7 6.9 93 0.5 ENE 19 26 10 14 1011.4 - 1.8
24/03:30am 7.9 3.0 6.8 93 0.5 ENE 22 28 12 15 1011.9 - 1.8
24/03:00am 7.8 3.4 6.5 91 0.6 ENE 19 24 10 13 1012.2 1012.2 1.6
24/02:30am 7.4 4.1 6.3 93 0.5 NE 13 17 7 9 1012.8 - 1.2
24/02:00am 7.6 3.9 6.1 90 0.7 NE 15 17 8 9 1013.4 - 0.8
24/01:30am 7.8 4.7 5.6 86 1.0 NE 11 15 6 8 1013.8 - 0.4
24/01:00am 7.9 5.1 5.2 83 1.2 NNE 9 11 5 6 1014.1 - 0.0
24/12:30am 7.2 4.0 4.9 85 1.0 ENE 11 13 6 7 1014.1 - 0.0
24/12:00am 7.4 4.6 5.1 85 1.0 E 9 9 5 5 1014.4 1014.5 0.0
 
Date/Time
CST
Temp
°C
App
Temp
°C
Dew
Point
Rel
Hum
%
Delta-T
°C
Wind Press
QNH
hPa
Press
MSL
hPa
Rain
since 9 am
mm
Dir
 
Spd
km/h
Gust
km/h
Spd
kts
Gust
kts
23/11:30pm 7.7 5.2 5.0 83 1.2 N 7 9 4 5 1014.9 - 0.0
23/11:00pm 8.1 5.6 4.5 78 1.6 N 7 9 4 5 1015.3 - 0.0
23/10:30pm 8.3 4.3 4.7 78 1.6 ENE 15 17 8 9 1015.0 - 0.0
23/10:00pm 7.8 3.8 5.1 83 1.2 NE 15 19 8 10 1015.0 - 0.0
23/09:30pm 7.7 3.8 5.2 84 1.1 ENE 15 19 8 10 1015.1 - 0.0
23/09:00pm 7.8 3.5 5.1 83 1.2 ENE 17 20 9 11 1015.2 1015.3 0.0
23/08:30pm 7.8 3.5 5.1 83 1.2 ENE 17 20 9 11 1015.4 - 0.0
23/08:00pm 7.7 2.8 5.2 84 1.1 ENE 20 24 11 13 1015.7 - 0.0
23/07:30pm 7.7 3.7 5.0 83 1.2 ENE 15 20 8 11 1016.0 - 0.0
23/07:00pm 7.6 4.0 5.1 84 1.1 ENE 13 17 7 9 1016.2 - 0.0
23/06:30pm 7.6 3.9 4.6 81 1.3 ENE 13 15 7 8 1016.3 - 0.0
23/06:00pm 7.6 4.2 4.1 78 1.5 ENE 11 13 6 7 1016.5 1016.6 0.0
23/05:30pm 7.6 3.8 4.1 78 1.5 ENE 13 17 7 9 1016.5 - 0.0
23/05:00pm 8.1 4.3 4.0 75 1.8 ENE 13 17 7 9 1016.8 - 0.0
23/04:30pm 8.9 4.3 3.6 69 2.3 ENE 17 20 9 11 1016.9 - 0.0
23/04:00pm 9.4 4.7 3.4 66 2.6 NE 17 22 9 12 1017.1 - 0.0
23/03:30pm 10.0 5.7 5.4 73 2.1 ENE 17 19 9 10 1017.0 - 0.0
23/03:00pm 10.4 6.4 4.9 69 2.5 ENE 15 17 8 9 1017.1 1017.2 0.0
23/02:30pm 10.6 5.3 3.0 59 3.3 NE 20 26 11 14 1017.2 - 0.0
23/02:00pm 10.5 5.8 5.0 69 2.5 NNE 19 22 10 12 1017.5 - 0.0
23/01:30pm 10.0 5.2 4.6 69 2.4 NE 19 24 10 13 1017.6 - 0.0
23/01:00pm 9.8 5.0 5.4 74 2.0 NNE 20 26 11 14 1018.0 - 0.0
23/12:30pm 9.8 5.6 5.9 77 1.8 NE 17 20 9 11 1018.5 - 0.0
23/12:00pm 10.0 5.6 6.6 79 1.6 NNE 19 24 10 13 1019.0 1019.1 0.0
23/11:30am 8.8 4.3 6.2 84 1.2 NE 19 26 10 14 1019.5 - 0.0
23/11:00am 8.2 3.6 5.8 85 1.1 NE 19 26 10 14 1020.3 - 0.0
23/10:30am 7.4 2.6 5.4 87 0.9 NE 20 26 11 14 1020.5 - 0.0
23/10:00am 6.6 2.2 5.0 89 0.7 NE 17 19 9 10 1021.0 - 0.0
23/09:30am 5.4 1.9 3.7 89 0.7 NE 11 15 6 8 1021.3 - 0.0
23/09:00am 4.4 0.9 3.4 93 0.4 ENE 11 11 6 6 1021.5 1021.6 Trace
23/08:30am 3.9 0.7 2.9 93 0.4 NE 9 11 5 6 1021.7 - -
23/08:00am 3.8 0.6 2.8 93 0.4 NE 9 9 5 5 1021.9 - -
23/07:30am 3.8 0.1 2.6 92 0.5 NE 11 13 6 7 1022.0 - -
23/07:00am 4.1 0.1 2.9 92 0.5 NNE 13 13 7 7 1021.9 - -
23/06:30am 4.2 0.6 3.0 92 0.5 NNE 11 13 6 7 1021.9 - -
23/06:00am 2.0 -1.8 1.5 96 0.2 NNE 11 11 6 6 1021.7 1021.8 -
23/05:30am 1.5 -2.0 1.0 96 0.2 NE 9 11 5 6 1021.6 - -
23/05:00am 1.2 -2.4 0.7 96 0.2 ENE 9 11 5 6 1021.6 - -
23/04:30am 2.0 -1.5 1.5 96 0.2 NE 9 11 5 6 1021.7 - -
23/04:00am 1.4 -1.7 1.4 100 0.0 NNE 7 9 4 5 1021.9 - -
23/03:30am 2.2 -0.9 1.4 94 0.3 NNE 7 9 4 5 1021.9 - -
23/03:00am 3.0 -0.7 2.2 94 0.3 NNE 11 13 6 7 1022.2 1022.3 -
23/02:30am 2.6 -0.7 2.6 100 0.0 NE 9 11 5 6 1021.9 - -
23/02:00am 4.7 1.1 3.2 90 0.6 NE 11 11 6 6 1022.1 - -
23/01:30am 5.0 1.5 3.6 91 0.6 NE 11 11 6 6 1022.2 - -
23/01:00am 3.5 0.7 3.3 99 0.1 NNE 7 11 4 6 1022.4 - -
23/12:30am 3.5 0.3 3.0 97 0.2 NNE 9 11 5 6 1022.6 - -
23/12:01am 3.2 0.3 2.4 94 0.3 NE 7 9 4 5 1022.7 - -
23/12:00am 3.1 0.2 2.6 96 0.2 NE 7 9 4 5 1022.7 1022.8 -
 
Date/Time
CST
Temp
°C
App
Temp
°C
Dew
Point
Rel
Hum
%
Delta-T
°C
Wind Press
QNH
hPa
Press
MSL
hPa
Rain
since 9 am
mm
Dir
 
Spd
km/h
Gust
km/h
Spd
kts
Gust
kts
22/11:32pm 3.3 0.7 3.1 99 0.1 ENE 6 7 3 4 1022.8 - -
22/11:30pm 3.3 0.5 3.3 100 0.0 NE 7 7 4 4 1022.9 - -
22/11:11pm 3.8 1.0 3.1 95 0.3 NE 7 7 4 4 1023.2 - -
22/11:00pm 3.7 0.9 3.2 97 0.2 ENE 7 7 4 4 1023.3 - -
22/10:30pm 4.1 1.4 3.6 97 0.2 ENE 7 9 4 5 1023.6 - -
22/10:00pm 4.1 1.0 3.4 95 0.3 ENE 9 9 5 5 1023.8 - -
22/09:30pm 5.6 3.0 4.4 92 0.5 N 7 7 4 4 1023.9 - -
22/09:00pm 6.1 3.2 4.7 91 0.6 NNE 9 11 5 6 1023.9 1024.0 -
22/08:30pm 4.9 1.2 4.2 95 0.3 NNE 13 13 7 7 1023.8 - -
22/08:00pm 5.5 2.7 5.0 97 0.2 NE 9 11 5 6 1023.6 - -
22/07:30pm 6.4 5.4 5.7 95 0.3 CALM 0 0 0 0 1023.3 - -
22/07:06pm 6.3 5.3 5.6 95 0.3 CALM 0 0 0 0 1023.5 - -
22/07:00pm 6.3 5.4 5.9 97 0.2 CALM 0 0 0 0 1023.5 - -
22/06:47pm 6.3 5.4 5.9 97 0.2 CALM 0 0 0 0 1023.5 - -
22/06:30pm 7.2 6.0 6.3 94 0.4 NNE 2 6 1 3 1023.5 - -
22/06:00pm 7.5 6.7 6.6 94 0.4 CALM 0 0 0 0 1023.4 1023.5 -
22/05:30pm 8.5 7.9 7.4 93 0.5 CALM 0 0 0 0 1023.4 - -
22/05:00pm 11.0 9.4 7.9 81 1.5 N 6 7 3 4 1023.3 - -
22/04:30pm 12.4 10.7 8.4 76 2.0 N 7 9 4 5 1023.1 - -

Other Formats:

Comma delimited format used in spreadsheet applications
http://www.bom.gov.au/fwo/IDS60801/IDS60801.94821.axf

JavaScript Object Notation format (JSON) in row-major order
http://www.bom.gov.au/fwo/IDS60801/IDS60801.94821.json